Virtual Norwegian is not affiliated with Norwegian Air Shuttle in any way.
If you are looking for the real "Norwegian", or you wish to book Norwegian flights, please visit Norwegian.com


We use cookies to ensure you get the best experience on our website.   ACCEPT

KOAK - OAK - Oakland (Metropolitan Oakland Intl)

General Info Alternate Airport
ICAO: KOAK Elevation: 9 ft ICAO: KSFO
IATA: OAK Country: United States IATA: SFO
City: Oakland Charts: Log in to view charts City: San Francisco
Name: Metropolitan Oakland Intl Hub: No Name San Francisco Intl
General Info
ICAO: KOAK
IATA: OAK
City: Oakland
Name: Metropolitan Oakland Intl
Elevation: 9 ft
Country: United States
Charts: Log in to view charts
Hub: No
 
Alternate Airport
ICAO: KSFO
IATA: SFO
City: San Francisco
Name: San Francisco Intl

Weather
221353Z 32004KT 10SM FEW300 10/09 A3000 RMK AO2 SLP159 T01000094
Weather
221353Z 32004KT 10SM FEW300 10/09 A3000 RMK AO2 SLP159 T01000094

Runway Info
10L
Length ILS/LOC Heading
1664 m N/A 112
10R
Length ILS/LOC Heading
1894 m N/A 112
12
Length ILS/LOC Course
3206 m 111.90 116
15
Length ILS/LOC Heading
1029 m N/A 164
28L
Length ILS/LOC Heading
1894 m N/A 292
28R
Length ILS/LOC Course
1664 m 109.90 278
30
Length ILS/LOC Course
3206 m 108.70 296
33
Length ILS/LOC Heading
1029 m N/A 344

NOTAMs
NOTAMs currently unavailable.
NOTAMs
NOTAMs currently unavailable

Route map
Airport
Airport (hub)